TimePDT,TemperatureF,Dew PointF,Humidity,Sea Level PressureIn,VisibilityMPH,Wind Direction,Wind SpeedMPH,Gust SpeedMPH,PrecipitationIn,Events,Conditions,WindDirDegrees,DateUTC
12:15 AM,53.6,48.2,82,29.90,3.0,North,-9999.0,-,0.08,,Overcast,0,2013-11-02 07:15:00
12:35 AM,53.6,48.2,82,29.88,5.0,North,-9999.0,-,0.13,,Overcast,0,2013-11-02 07:35:00
12:55 AM,53.6,48.2,82,29.87,5.0,North,-9999.0,-,0.16,,Overcast,0,2013-11-02 07:55:00
1:15 AM,53.6,48.2,82,29.85,8.0,North,-9999.0,-,0.01,,Overcast,0,2013-11-02 08:15:00
1:35 AM,53.6,48.2,82,29.83,10.0,North,-9999.0,-,0.04,,Overcast,0,2013-11-02 08:35:00
1:55 AM,53.6,48.2,82,29.83,8.0,North,-9999.0,-,0.04,,Overcast,0,2013-11-02 08:55:00
2:15 AM,53.6,48.2,82,29.83,8.0,North,-9999.0,-,N/A,,Overcast,0,2013-11-02 09:15:00
2:35 AM,53.6,48.2,82,29.81,6.0,SSE,9.2,-,0.05,,Overcast,150,2013-11-02 09:35:00
2:55 AM,53.6,48.2,82,29.78,7.0,SSE,9.2,16.1,0.08,,Overcast,150,2013-11-02 09:55:00
3:15 AM,53.6,48.2,82,29.76,10.0,SSE,9.2,-,0.01,,Overcast,150,2013-11-02 10:15:00
3:35 AM,53.6,48.2,82,29.75,10.0,SSE,9.2,-,0.01,,Overcast,150,2013-11-02 10:35:00
3:55 AM,53.6,48.2,82,29.78,10.0,North,-9999.0,-,0.01,,Overcast,0,2013-11-02 10:55:00
4:15 AM,53.6,48.2,82,29.75,6.0,SSE,13.8,25.3,N/A,,Overcast,150,2013-11-02 11:15:00
4:35 AM,53.6,48.2,82,29.73,10.0,North,-9999.0,-,0.02,,Overcast,0,2013-11-02 11:35:00
4:55 AM,53.6,48.2,82,29.68,10.0,North,-9999.0,-,0.03,,Mostly Cloudy,0,2013-11-02 11:55:00
5:15 AM,53.6,46.4,77,29.69,10.0,North,-9999.0,-,N/A,,Overcast,0,2013-11-02 12:15:00
5:35 AM,53.6,46.4,77,29.69,10.0,North,-9999.0,-,N/A,,Overcast,0,2013-11-02 12:35:00
5:55 AM,53.6,46.4,77,29.70,10.0,North,-9999.0,-,N/A,,Overcast,0,2013-11-02 12:55:00
6:15 AM,51.8,48.2,88,29.70,10.0,North,-9999.0,-,N/A,,Overcast,0,2013-11-02 13:15:00
6:35 AM,51.8,48.2,88,29.72,5.0,South,16.1,19.6,0.01,,Overcast,190,2013-11-02 13:35:00
6:55 AM,51.8,48.2,88,29.73,10.0,North,-9999.0,-,0.01,,Overcast,0,2013-11-02 13:55:00
7:15 AM,51.8,48.2,88,29.73,10.0,North,-9999.0,-,0.01,,Overcast,0,2013-11-02 14:15:00
7:35 AM,53.6,46.4,77,29.75,9.0,North,-9999.0,-,0.01,,Overcast,0,2013-11-02 14:35:00
7:55 AM,51.8,46.4,82,29.76,10.0,North,-9999.0,-,0.06,,Overcast,0,2013-11-02 14:55:00
8:15 AM,51.8,46.4,82,29.77,10.0,North,-9999.0,-,N/A,,Overcast,0,2013-11-02 15:15:00
8:35 AM,51.8,44.6,76,29.79,10.0,North,-9999.0,-,N/A,,Overcast,0,2013-11-02 15:35:00
8:55 AM,51.8,44.6,76,29.82,10.0,North,-9999.0,-,0.01,,Mostly Cloudy,0,2013-11-02 15:55:00
9:15 AM,50.0,42.8,76,29.84,10.0,North,-9999.0,-,N/A,,Overcast,0,2013-11-02 16:15:00
9:35 AM,50.0,42.8,76,29.85,10.0,North,-9999.0,-,0.01,,Overcast,0,2013-11-02 16:35:00
9:55 AM,51.8,42.8,71,29.86,10.0,North,-9999.0,-,0.01,,Mostly Cloudy,0,2013-11-02 16:55:00
10:15 AM,51.8,42.8,71,29.87,10.0,North,-9999.0,-,N/A,,Overcast,0,2013-11-02 17:15:00
10:35 AM,51.8,42.8,71,29.88,10.0,North,-9999.0,-,N/A,,Mostly Cloudy,0,2013-11-02 17:35:00
10:55 AM,53.6,42.8,67,29.89,10.0,North,-9999.0,-,N/A,,Overcast,0,2013-11-02 17:55:00
11:15 AM,53.6,39.2,58,29.90,10.0,North,-9999.0,-,N/A,,Overcast,0,2013-11-02 18:15:00
11:35 AM,55.4,41.0,58,29.92,10.0,North,-9999.0,-,N/A,,Overcast,0,2013-11-02 18:35:00
11:55 AM,55.4,39.2,54,29.93,10.0,North,-9999.0,-,N/A,,Mostly Cloudy,0,2013-11-02 18:55:00
12:15 PM,53.6,39.2,58,29.93,10.0,North,-9999.0,-,N/A,,Overcast,0,2013-11-02 19:15:00
12:35 PM,55.4,39.2,54,29.94,10.0,North,-9999.0,-,N/A,,Overcast,0,2013-11-02 19:35:00
12:55 PM,55.4,39.2,54,29.94,10.0,North,-9999.0,-,N/A,,Mostly Cloudy,0,2013-11-02 19:55:00
1:15 PM,55.4,39.2,54,29.94,10.0,North,-9999.0,-,N/A,,Mostly Cloudy,0,2013-11-02 20:15:00
1:35 PM,53.6,37.4,54,29.96,10.0,North,-9999.0,-,N/A,,Mostly Cloudy,0,2013-11-02 20:35:00
1:55 PM,53.6,39.2,58,29.97,10.0,North,-9999.0,-,N/A,,Mostly Cloudy,0,2013-11-02 20:55:00
2:15 PM,55.4,39.2,54,29.97,10.0,North,-9999.0,-,N/A,,Mostly Cloudy,0,2013-11-02 21:15:00
2:35 PM,55.4,39.2,54,29.97,10.0,North,-9999.0,-,N/A,,Mostly Cloudy,0,2013-11-02 21:35:00
2:55 PM,53.6,35.6,51,29.98,10.0,North,-9999.0,-,N/A,,Overcast,0,2013-11-02 21:55:00
3:15 PM,53.6,37.4,54,29.99,10.0,North,-9999.0,-,N/A,,Scattered Clouds,0,2013-11-02 22:15:00
3:35 PM,53.6,39.2,58,29.99,10.0,North,-9999.0,-,N/A,,Mostly Cloudy,0,2013-11-02 22:35:00
3:55 PM,51.8,39.2,62,30.00,10.0,North,-9999.0,-,N/A,,Overcast,0,2013-11-02 22:55:00
4:15 PM,50.0,39.2,66,30.01,9.0,North,-9999.0,-,0.01,,Overcast,0,2013-11-02 23:15:00
4:35 PM,48.2,37.4,66,30.02,10.0,North,-9999.0,-,0.01,,Scattered Clouds,0,2013-11-02 23:35:00
4:55 PM,48.2,37.4,66,30.02,10.0,North,-9999.0,-,0.01,,Scattered Clouds,0,2013-11-02 23:55:00
5:15 PM,48.2,37.4,66,30.03,10.0,North,-9999.0,-,N/A,,Mostly Cloudy,0,2013-11-03 00:15:00
5:35 PM,48.2,39.2,71,30.03,10.0,North,-9999.0,-,0.01,,Overcast,0,2013-11-03 00:35:00
5:55 PM,48.2,39.2,71,30.02,7.0,WNW,6.9,-,0.02,,Overcast,300,2013-11-03 00:55:00
6:15 PM,46.4,39.2,76,30.03,10.0,NNW,4.6,-,0.01,,Overcast,340,2013-11-03 01:15:00
6:35 PM,46.4,37.4,71,30.03,10.0,Calm,Calm,-,0.01,,Mostly Cloudy,0,2013-11-03 01:35:00
6:55 PM,44.6,37.4,76,30.04,7.0,Calm,Calm,-,0.05,,Mostly Cloudy,0,2013-11-03 01:55:00
7:15 PM,44.6,39.2,81,30.04,9.0,Calm,Calm,-,N/A,,Mostly Cloudy,0,2013-11-03 02:15:00
7:35 PM,44.6,39.2,81,30.04,10.0,ESE,3.5,-,0.01,,Mostly Cloudy,120,2013-11-03 02:35:00
7:55 PM,44.6,39.2,81,30.04,10.0,Calm,Calm,-,0.01,,Mostly Cloudy,0,2013-11-03 02:55:00
8:15 PM,44.6,39.2,81,30.04,7.0,Calm,Calm,-,0.03,,Mostly Cloudy,0,2013-11-03 03:15:00
8:35 PM,44.6,39.2,81,30.04,10.0,North,-9999.0,-,0.03,,Partly Cloudy,0,2013-11-03 03:35:00
8:55 PM,44.6,37.4,76,30.06,5.0,NNW,5.8,18.4,0.10,,Mostly Cloudy,330,2013-11-03 03:55:00
9:15 PM,42.8,35.6,76,30.04,10.0,SE,3.5,-,0.05,,Overcast,140,2013-11-03 04:15:00
9:35 PM,42.8,37.4,81,30.04,10.0,Calm,Calm,-,0.06,,Mostly Cloudy,0,2013-11-03 04:35:00
9:55 PM,42.8,37.4,81,30.05,8.0,North,-9999.0,-,0.07,,Mostly Cloudy,0,2013-11-03 04:55:00
10:15 PM,42.8,37.4,81,30.05,10.0,North,-9999.0,-,N/A,,Overcast,0,2013-11-03 05:15:00
10:35 PM,42.8,37.4,81,30.05,10.0,North,-9999.0,-,N/A,,Overcast,0,2013-11-03 05:35:00
10:55 PM,44.6,37.4,76,30.06,10.0,West,4.6,-,N/A,,Overcast,270,2013-11-03 05:55:00
11:15 PM,44.6,37.4,76,30.05,10.0,Calm,Calm,-,0.01,,Mostly Cloudy,0,2013-11-03 06:15:00
11:35 PM,42.8,39.2,87,30.05,10.0,East,3.5,-,0.01,,Mostly Cloudy,90,2013-11-03 06:35:00
11:55 PM,42.8,39.2,87,30.05,10.0,ESE,3.5,-,0.01,,Overcast,120,2013-11-03 06:55:00